sensor_id;sensor_type;location;lat;lon;timestamp;P1;durP1;ratioP1;P2;durP2;ratioP2
22068;SDS011;13887;57.196;-2.100;2024-03-08T00:00:12;12.40;;;12.00;;
22068;SDS011;13887;57.196;-2.100;2024-03-08T00:02:43;11.23;;;10.93;;
22068;SDS011;13887;57.196;-2.100;2024-03-08T00:05:12;11.67;;;11.27;;
22068;SDS011;13887;57.196;-2.100;2024-03-08T00:07:40;11.57;;;11.17;;
22068;SDS011;13887;57.196;-2.100;2024-03-08T00:10:10;11.20;;;10.90;;
22068;SDS011;13887;57.196;-2.100;2024-03-08T00:12:41;11.67;;;11.27;;
22068;SDS011;13887;57.196;-2.100;2024-03-08T00:15:09;11.23;;;10.93;;
22068;SDS011;13887;57.196;-2.100;2024-03-08T00:17:37;11.43;;;11.03;;
22068;SDS011;13887;57.196;-2.100;2024-03-08T00:20:05;11.53;;;11.13;;
22068;SDS011;13887;57.196;-2.100;2024-03-08T00:22:35;11.97;;;11.57;;
22068;SDS011;13887;57.196;-2.100;2024-03-08T00:25:04;11.80;;;11.40;;
22068;SDS011;13887;57.196;-2.100;2024-03-08T00:27:32;12.17;;;11.77;;
22068;SDS011;13887;57.196;-2.100;2024-03-08T00:29:59;11.93;;;11.53;;
22068;SDS011;13887;57.196;-2.100;2024-03-08T00:32:27;12.20;;;11.80;;
22068;SDS011;13887;57.196;-2.100;2024-03-08T00:34:55;11.73;;;11.33;;
22068;SDS011;13887;57.196;-2.100;2024-03-08T00:37:22;11.60;;;11.20;;
22068;SDS011;13887;57.196;-2.100;2024-03-08T00:39:50;12.03;;;11.63;;
22068;SDS011;13887;57.196;-2.100;2024-03-08T00:42:19;12.47;;;12.07;;
22068;SDS011;13887;57.196;-2.100;2024-03-08T00:44:47;12.37;;;11.97;;
22068;SDS011;13887;57.196;-2.100;2024-03-08T00:47:18;12.47;;;12.07;;
22068;SDS011;13887;57.196;-2.100;2024-03-08T00:49:46;12.50;;;12.10;;
22068;SDS011;13887;57.196;-2.100;2024-03-08T00:52:13;12.10;;;11.70;;
22068;SDS011;13887;57.196;-2.100;2024-03-08T00:54:41;12.13;;;11.73;;
22068;SDS011;13887;57.196;-2.100;2024-03-08T00:57:11;12.53;;;12.13;;
22068;SDS011;13887;57.196;-2.100;2024-03-08T00:59:39;12.43;;;12.03;;
22068;SDS011;13887;57.196;-2.100;2024-03-08T01:02:06;12.40;;;12.00;;
22068;SDS011;13887;57.196;-2.100;2024-03-08T01:04:35;12.63;;;12.23;;
22068;SDS011;13887;57.196;-2.100;2024-03-08T01:07:03;12.90;;;12.50;;
22068;SDS011;13887;57.196;-2.100;2024-03-08T01:09:30;12.53;;;12.13;;
22068;SDS011;13887;57.196;-2.100;2024-03-08T01:11:58;12.23;;;11.83;;
22068;SDS011;13887;57.196;-2.100;2024-03-08T01:14:26;12.33;;;11.93;;
22068;SDS011;13887;57.196;-2.100;2024-03-08T01:16:53;12.57;;;12.17;;
22068;SDS011;13887;57.196;-2.100;2024-03-08T01:19:21;12.20;;;11.80;;
22068;SDS011;13887;57.196;-2.100;2024-03-08T01:21:49;12.50;;;12.10;;
22068;SDS011;13887;57.196;-2.100;2024-03-08T01:24:16;11.80;;;11.40;;
22068;SDS011;13887;57.196;-2.100;2024-03-08T01:26:45;12.03;;;11.63;;
22068;SDS011;13887;57.196;-2.100;2024-03-08T01:29:12;11.43;;;11.03;;
22068;SDS011;13887;57.196;-2.100;2024-03-08T01:31:39;11.60;;;11.20;;
22068;SDS011;13887;57.196;-2.100;2024-03-08T01:34:06;11.67;;;11.27;;
22068;SDS011;13887;57.196;-2.100;2024-03-08T01:36:34;11.50;;;11.10;;
22068;SDS011;13887;57.196;-2.100;2024-03-08T01:39:01;11.87;;;11.47;;
22068;SDS011;13887;57.196;-2.100;2024-03-08T01:41:28;11.60;;;11.20;;
22068;SDS011;13887;57.196;-2.100;2024-03-08T01:43:56;12.07;;;11.67;;
22068;SDS011;13887;57.196;-2.100;2024-03-08T01:46:26;12.70;;;12.30;;
22068;SDS011;13887;57.196;-2.100;2024-03-08T01:48:55;12.23;;;11.83;;
22068;SDS011;13887;57.196;-2.100;2024-03-08T01:51:23;12.60;;;12.20;;
22068;SDS011;13887;57.196;-2.100;2024-03-08T01:53:50;12.57;;;12.17;;
22068;SDS011;13887;57.196;-2.100;2024-03-08T01:56:18;12.70;;;12.30;;
22068;SDS011;13887;57.196;-2.100;2024-03-08T01:58:46;13.00;;;12.60;;
22068;SDS011;13887;57.196;-2.100;2024-03-08T02:01:16;12.43;;;12.03;;
22068;SDS011;13887;57.196;-2.100;2024-03-08T02:03:46;12.47;;;12.07;;
22068;SDS011;13887;57.196;-2.100;2024-03-08T02:06:13;12.40;;;12.00;;
22068;SDS011;13887;57.196;-2.100;2024-03-08T02:08:44;12.60;;;12.20;;
22068;SDS011;13887;57.196;-2.100;2024-03-08T02:11:13;12.87;;;12.47;;
22068;SDS011;13887;57.196;-2.100;2024-03-08T02:13:41;13.10;;;12.70;;
22068;SDS011;13887;57.196;-2.100;2024-03-08T02:16:09;12.83;;;12.43;;
22068;SDS011;13887;57.196;-2.100;2024-03-08T02:18:37;12.50;;;12.10;;
22068;SDS011;13887;57.196;-2.100;2024-03-08T02:21:07;13.03;;;12.63;;
22068;SDS011;13887;57.196;-2.100;2024-03-08T02:23:35;12.87;;;12.47;;
22068;SDS011;13887;57.196;-2.100;2024-03-08T02:26:04;13.07;;;12.67;;
22068;SDS011;13887;57.196;-2.100;2024-03-08T02:28:31;13.47;;;13.00;;
22068;SDS011;13887;57.196;-2.100;2024-03-08T02:31:00;12.73;;;12.33;;
22068;SDS011;13887;57.196;-2.100;2024-03-08T02:33:27;12.83;;;12.43;;
22068;SDS011;13887;57.196;-2.100;2024-03-08T02:35:56;12.50;;;12.10;;
22068;SDS011;13887;57.196;-2.100;2024-03-08T02:38:23;12.67;;;12.27;;
22068;SDS011;13887;57.196;-2.100;2024-03-08T02:40:53;12.57;;;12.17;;
22068;SDS011;13887;57.196;-2.100;2024-03-08T02:43:21;12.63;;;12.23;;
22068;SDS011;13887;57.196;-2.100;2024-03-08T02:45:49;12.60;;;12.20;;
22068;SDS011;13887;57.196;-2.100;2024-03-08T02:48:19;12.63;;;12.23;;
22068;SDS011;13887;57.196;-2.100;2024-03-08T02:50:51;12.60;;;12.20;;
22068;SDS011;13887;57.196;-2.100;2024-03-08T02:53:19;12.70;;;12.30;;
22068;SDS011;13887;57.196;-2.100;2024-03-08T02:55:46;13.20;;;12.80;;
22068;SDS011;13887;57.196;-2.100;2024-03-08T02:58:13;12.57;;;12.17;;
22068;SDS011;13887;57.196;-2.100;2024-03-08T03:00:41;12.77;;;12.37;;
22068;SDS011;13887;57.196;-2.100;2024-03-08T03:03:11;12.43;;;12.03;;
22068;SDS011;13887;57.196;-2.100;2024-03-08T03:05:39;12.10;;;11.70;;
22068;SDS011;13887;57.196;-2.100;2024-03-08T03:08:14;12.53;;;12.13;;
22068;SDS011;13887;57.196;-2.100;2024-03-08T03:10:44;12.87;;;12.47;;
22068;SDS011;13887;57.196;-2.100;2024-03-08T03:13:12;12.40;;;12.00;;
22068;SDS011;13887;57.196;-2.100;2024-03-08T03:15:41;12.70;;;12.30;;
22068;SDS011;13887;57.196;-2.100;2024-03-08T03:18:11;12.57;;;12.17;;
22068;SDS011;13887;57.196;-2.100;2024-03-08T03:20:39;13.07;;;12.67;;
22068;SDS011;13887;57.196;-2.100;2024-03-08T03:23:10;12.80;;;12.40;;
22068;SDS011;13887;57.196;-2.100;2024-03-08T03:25:42;13.10;;;12.70;;
22068;SDS011;13887;57.196;-2.100;2024-03-08T03:28:10;12.60;;;12.20;;
22068;SDS011;13887;57.196;-2.100;2024-03-08T03:30:38;12.53;;;12.13;;
22068;SDS011;13887;57.196;-2.100;2024-03-08T03:33:06;12.47;;;12.07;;
22068;SDS011;13887;57.196;-2.100;2024-03-08T03:35:34;12.47;;;12.07;;
22068;SDS011;13887;57.196;-2.100;2024-03-08T03:38:04;12.50;;;12.10;;
22068;SDS011;13887;57.196;-2.100;2024-03-08T03:40:31;12.37;;;11.97;;
22068;SDS011;13887;57.196;-2.100;2024-03-08T03:43:03;12.10;;;11.70;;
22068;SDS011;13887;57.196;-2.100;2024-03-08T03:45:30;12.30;;;11.90;;
22068;SDS011;13887;57.196;-2.100;2024-03-08T03:48:04;12.43;;;12.03;;
22068;SDS011;13887;57.196;-2.100;2024-03-08T03:50:34;12.53;;;12.13;;
22068;SDS011;13887;57.196;-2.100;2024-03-08T03:53:03;12.57;;;12.17;;
22068;SDS011;13887;57.196;-2.100;2024-03-08T03:55:31;12.53;;;12.13;;
22068;SDS011;13887;57.196;-2.100;2024-03-08T03:57:58;12.30;;;11.90;;
22068;SDS011;13887;57.196;-2.100;2024-03-08T04:00:28;12.90;;;12.50;;
22068;SDS011;13887;57.196;-2.100;2024-03-08T04:02:55;12.70;;;12.30;;
22068;SDS011;13887;57.196;-2.100;2024-03-08T04:05:26;12.57;;;12.17;;
22068;SDS011;13887;57.196;-2.100;2024-03-08T04:07:53;12.63;;;12.23;;
22068;SDS011;13887;57.196;-2.100;2024-03-08T04:10:21;12.53;;;12.13;;
22068;SDS011;13887;57.196;-2.100;2024-03-08T04:12:48;12.70;;;12.30;;
22068;SDS011;13887;57.196;-2.100;2024-03-08T04:15:15;13.93;;;13.47;;
22068;SDS011;13887;57.196;-2.100;2024-03-08T04:17:42;12.60;;;12.20;;
22068;SDS011;13887;57.196;-2.100;2024-03-08T04:20:13;12.50;;;12.10;;
22068;SDS011;13887;57.196;-2.100;2024-03-08T04:22:41;13.13;;;12.70;;
22068;SDS011;13887;57.196;-2.100;2024-03-08T04:25:11;12.60;;;12.20;;
22068;SDS011;13887;57.196;-2.100;2024-03-08T04:27:38;12.70;;;12.30;;
22068;SDS011;13887;57.196;-2.100;2024-03-08T04:30:05;12.77;;;12.37;;
22068;SDS011;13887;57.196;-2.100;2024-03-08T04:32:36;12.80;;;12.40;;
22068;SDS011;13887;57.196;-2.100;2024-03-08T04:35:05;12.23;;;11.83;;
22068;SDS011;13887;57.196;-2.100;2024-03-08T04:37:32;12.70;;;12.30;;
22068;SDS011;13887;57.196;-2.100;2024-03-08T04:39:59;12.40;;;12.00;;
22068;SDS011;13887;57.196;-2.100;2024-03-08T04:42:27;12.33;;;11.93;;
22068;SDS011;13887;57.196;-2.100;2024-03-08T04:44:56;12.33;;;11.93;;
22068;SDS011;13887;57.196;-2.100;2024-03-08T04:47:24;12.60;;;12.20;;
22068;SDS011;13887;57.196;-2.100;2024-03-08T04:49:52;12.33;;;11.93;;
22068;SDS011;13887;57.196;-2.100;2024-03-08T04:52:20;12.50;;;12.10;;
22068;SDS011;13887;57.196;-2.100;2024-03-08T04:54:49;12.30;;;11.90;;
22068;SDS011;13887;57.196;-2.100;2024-03-08T04:57:16;12.50;;;12.10;;
22068;SDS011;13887;57.196;-2.100;2024-03-08T04:59:46;12.37;;;11.97;;
22068;SDS011;13887;57.196;-2.100;2024-03-08T05:02:13;12.50;;;12.10;;
22068;SDS011;13887;57.196;-2.100;2024-03-08T05:04:40;12.37;;;11.97;;
22068;SDS011;13887;57.196;-2.100;2024-03-08T05:07:09;12.90;;;12.50;;
22068;SDS011;13887;57.196;-2.100;2024-03-08T05:09:37;12.73;;;12.33;;
22068;SDS011;13887;57.196;-2.100;2024-03-08T05:12:04;12.60;;;12.20;;
22068;SDS011;13887;57.196;-2.100;2024-03-08T05:14:32;12.73;;;12.33;;
22068;SDS011;13887;57.196;-2.100;2024-03-08T05:17:02;12.73;;;12.33;;
22068;SDS011;13887;57.196;-2.100;2024-03-08T05:19:29;12.97;;;12.57;;
22068;SDS011;13887;57.196;-2.100;2024-03-08T05:22:00;13.00;;;12.60;;
22068;SDS011;13887;57.196;-2.100;2024-03-08T05:24:28;12.60;;;12.20;;
22068;SDS011;13887;57.196;-2.100;2024-03-08T05:26:57;12.47;;;12.07;;
22068;SDS011;13887;57.196;-2.100;2024-03-08T05:29:26;12.60;;;12.20;;
22068;SDS011;13887;57.196;-2.100;2024-03-08T05:31:53;12.53;;;12.13;;
22068;SDS011;13887;57.196;-2.100;2024-03-08T05:34:21;12.80;;;12.40;;
22068;SDS011;13887;57.196;-2.100;2024-03-08T05:36:48;11.97;;;11.57;;
22068;SDS011;13887;57.196;-2.100;2024-03-08T05:39:18;12.57;;;12.17;;
22068;SDS011;13887;57.196;-2.100;2024-03-08T05:41:47;12.60;;;12.20;;
22068;SDS011;13887;57.196;-2.100;2024-03-08T05:44:15;12.50;;;12.10;;
22068;SDS011;13887;57.196;-2.100;2024-03-08T05:46:44;12.60;;;12.20;;
22068;SDS011;13887;57.196;-2.100;2024-03-08T05:49:11;12.40;;;12.00;;
22068;SDS011;13887;57.196;-2.100;2024-03-08T05:51:40;12.30;;;11.90;;
22068;SDS011;13887;57.196;-2.100;2024-03-08T05:54:08;12.17;;;11.77;;
22068;SDS011;13887;57.196;-2.100;2024-03-08T05:56:41;12.70;;;12.30;;
22068;SDS011;13887;57.196;-2.100;2024-03-08T05:59:10;12.17;;;11.77;;
22068;SDS011;13887;57.196;-2.100;2024-03-08T06:01:37;12.20;;;11.80;;
22068;SDS011;13887;57.196;-2.100;2024-03-08T06:04:08;14.10;;;13.60;;
22068;SDS011;13887;57.196;-2.100;2024-03-08T06:06:38;15.47;;;14.93;;
22068;SDS011;13887;57.196;-2.100;2024-03-08T06:09:07;13.83;;;13.33;;
22068;SDS011;13887;57.196;-2.100;2024-03-08T06:11:39;14.10;;;13.60;;
22068;SDS011;13887;57.196;-2.100;2024-03-08T06:14:06;14.07;;;13.57;;
22068;SDS011;13887;57.196;-2.100;2024-03-08T06:16:33;14.60;;;14.10;;
22068;SDS011;13887;57.196;-2.100;2024-03-08T06:19:02;14.03;;;13.53;;
22068;SDS011;13887;57.196;-2.100;2024-03-08T06:21:30;14.03;;;13.53;;
22068;SDS011;13887;57.196;-2.100;2024-03-08T06:23:58;14.40;;;13.90;;
22068;SDS011;13887;57.196;-2.100;2024-03-08T06:26:25;14.03;;;13.53;;
22068;SDS011;13887;57.196;-2.100;2024-03-08T06:28:56;13.77;;;13.27;;
22068;SDS011;13887;57.196;-2.100;2024-03-08T06:31:24;14.40;;;13.90;;
22068;SDS011;13887;57.196;-2.100;2024-03-08T06:33:52;14.17;;;13.67;;
22068;SDS011;13887;57.196;-2.100;2024-03-08T06:36:23;14.10;;;13.60;;
22068;SDS011;13887;57.196;-2.100;2024-03-08T06:38:51;13.60;;;13.10;;
22068;SDS011;13887;57.196;-2.100;2024-03-08T06:41:18;13.10;;;12.70;;
22068;SDS011;13887;57.196;-2.100;2024-03-08T06:43:46;13.33;;;12.83;;
22068;SDS011;13887;57.196;-2.100;2024-03-08T06:46:15;13.50;;;13.00;;
22068;SDS011;13887;57.196;-2.100;2024-03-08T06:48:43;12.77;;;12.37;;
22068;SDS011;13887;57.196;-2.100;2024-03-08T06:51:10;13.40;;;12.90;;
22068;SDS011;13887;57.196;-2.100;2024-03-08T06:53:38;13.33;;;12.83;;
22068;SDS011;13887;57.196;-2.100;2024-03-08T06:56:06;13.40;;;12.90;;
22068;SDS011;13887;57.196;-2.100;2024-03-08T06:58:35;13.27;;;12.77;;
22068;SDS011;13887;57.196;-2.100;2024-03-08T07:01:02;13.60;;;13.10;;
22068;SDS011;13887;57.196;-2.100;2024-03-08T07:03:31;13.80;;;13.30;;
22068;SDS011;13887;57.196;-2.100;2024-03-08T07:05:59;14.77;;;14.27;;
22068;SDS011;13887;57.196;-2.100;2024-03-08T07:08:30;14.17;;;13.67;;
22068;SDS011;13887;57.196;-2.100;2024-03-08T07:10:58;14.20;;;13.70;;
22068;SDS011;13887;57.196;-2.100;2024-03-08T07:13:26;13.50;;;13.00;;
22068;SDS011;13887;57.196;-2.100;2024-03-08T07:15:55;13.60;;;13.10;;
22068;SDS011;13887;57.196;-2.100;2024-03-08T07:18:23;13.43;;;12.93;;
22068;SDS011;13887;57.196;-2.100;2024-03-08T07:20:51;13.83;;;13.33;;
22068;SDS011;13887;57.196;-2.100;2024-03-08T07:23:18;13.87;;;13.37;;
22068;SDS011;13887;57.196;-2.100;2024-03-08T07:26:04;14.00;;;13.50;;
22068;SDS011;13887;57.196;-2.100;2024-03-08T07:28:31;13.10;;;12.70;;
22068;SDS011;13887;57.196;-2.100;2024-03-08T07:30:58;13.17;;;12.77;;
22068;SDS011;13887;57.196;-2.100;2024-03-08T07:33:44;13.43;;;12.93;;
22068;SDS011;13887;57.196;-2.100;2024-03-08T07:36:11;13.60;;;13.10;;
22068;SDS011;13887;57.196;-2.100;2024-03-08T07:38:39;13.10;;;12.70;;
22068;SDS011;13887;57.196;-2.100;2024-03-08T07:41:06;12.93;;;12.53;;
22068;SDS011;13887;57.196;-2.100;2024-03-08T07:43:33;15.03;;;14.43;;
22068;SDS011;13887;57.196;-2.100;2024-03-08T07:46:00;13.13;;;12.73;;
22068;SDS011;13887;57.196;-2.100;2024-03-08T07:48:28;12.83;;;12.43;;
22068;SDS011;13887;57.196;-2.100;2024-03-08T07:50:55;13.50;;;13.00;;
22068;SDS011;13887;57.196;-2.100;2024-03-08T07:53:23;13.33;;;12.83;;
22068;SDS011;13887;57.196;-2.100;2024-03-08T07:55:53;13.43;;;12.93;;
22068;SDS011;13887;57.196;-2.100;2024-03-08T07:58:20;13.60;;;13.10;;
22068;SDS011;13887;57.196;-2.100;2024-03-08T08:00:48;13.00;;;12.60;;
22068;SDS011;13887;57.196;-2.100;2024-03-08T08:03:15;13.03;;;12.63;;
22068;SDS011;13887;57.196;-2.100;2024-03-08T08:05:44;13.10;;;12.70;;
22068;SDS011;13887;57.196;-2.100;2024-03-08T08:08:12;13.00;;;12.60;;
22068;SDS011;13887;57.196;-2.100;2024-03-08T08:10:40;13.40;;;12.90;;
22068;SDS011;13887;57.196;-2.100;2024-03-08T08:13:07;12.80;;;12.40;;
22068;SDS011;13887;57.196;-2.100;2024-03-08T08:15:34;13.20;;;12.80;;
22068;SDS011;13887;57.196;-2.100;2024-03-08T08:18:02;13.47;;;12.97;;
22068;SDS011;13887;57.196;-2.100;2024-03-08T08:20:33;12.80;;;12.40;;
22068;SDS011;13887;57.196;-2.100;2024-03-08T08:23:00;13.10;;;12.70;;
22068;SDS011;13887;57.196;-2.100;2024-03-08T08:25:28;13.30;;;12.87;;
22068;SDS011;13887;57.196;-2.100;2024-03-08T08:27:55;12.60;;;12.20;;
22068;SDS011;13887;57.196;-2.100;2024-03-08T08:30:22;13.10;;;12.70;;
22068;SDS011;13887;57.196;-2.100;2024-03-08T08:32:49;13.60;;;13.10;;
22068;SDS011;13887;57.196;-2.100;2024-03-08T08:35:17;13.40;;;12.90;;
22068;SDS011;13887;57.196;-2.100;2024-03-08T08:37:46;13.03;;;12.63;;
22068;SDS011;13887;57.196;-2.100;2024-03-08T08:40:14;12.90;;;12.50;;
22068;SDS011;13887;57.196;-2.100;2024-03-08T08:42:42;13.67;;;13.17;;
22068;SDS011;13887;57.196;-2.100;2024-03-08T08:45:10;13.07;;;12.67;;
22068;SDS011;13887;57.196;-2.100;2024-03-08T08:47:43;12.93;;;12.53;;
22068;SDS011;13887;57.196;-2.100;2024-03-08T08:50:12;13.50;;;13.00;;
22068;SDS011;13887;57.196;-2.100;2024-03-08T08:52:40;13.83;;;13.33;;
22068;SDS011;13887;57.196;-2.100;2024-03-08T08:55:08;13.97;;;13.47;;
22068;SDS011;13887;57.196;-2.100;2024-03-08T08:57:36;13.80;;;13.30;;
22068;SDS011;13887;57.196;-2.100;2024-03-08T09:00:03;13.90;;;13.40;;
22068;SDS011;13887;57.196;-2.100;2024-03-08T09:02:34;13.80;;;13.30;;
22068;SDS011;13887;57.196;-2.100;2024-03-08T09:05:02;13.17;;;12.77;;
22068;SDS011;13887;57.196;-2.100;2024-03-08T09:07:29;13.50;;;13.00;;
22068;SDS011;13887;57.196;-2.100;2024-03-08T09:09:57;13.60;;;13.10;;
22068;SDS011;13887;57.196;-2.100;2024-03-08T09:12:25;14.03;;;13.53;;
22068;SDS011;13887;57.196;-2.100;2024-03-08T09:14:53;14.30;;;13.80;;
22068;SDS011;13887;57.196;-2.100;2024-03-08T09:17:21;13.77;;;13.27;;
22068;SDS011;13887;57.196;-2.100;2024-03-08T09:19:49;12.93;;;12.53;;
22068;SDS011;13887;57.196;-2.100;2024-03-08T09:22:17;13.40;;;12.90;;
22068;SDS011;13887;57.196;-2.100;2024-03-08T09:24:45;13.63;;;13.13;;
22068;SDS011;13887;57.196;-2.100;2024-03-08T09:27:12;13.50;;;13.00;;
22068;SDS011;13887;57.196;-2.100;2024-03-08T09:29:40;12.63;;;12.23;;
22068;SDS011;13887;57.196;-2.100;2024-03-08T09:32:07;12.63;;;12.23;;
22068;SDS011;13887;57.196;-2.100;2024-03-08T09:34:34;13.00;;;12.60;;
22068;SDS011;13887;57.196;-2.100;2024-03-08T09:37:04;13.57;;;13.07;;
22068;SDS011;13887;57.196;-2.100;2024-03-08T09:39:31;13.10;;;12.70;;
22068;SDS011;13887;57.196;-2.100;2024-03-08T09:42:01;13.40;;;12.90;;
22068;SDS011;13887;57.196;-2.100;2024-03-08T09:44:28;13.10;;;12.70;;
22068;SDS011;13887;57.196;-2.100;2024-03-08T09:46:55;12.97;;;12.57;;
22068;SDS011;13887;57.196;-2.100;2024-03-08T09:49:25;15.93;;;15.23;;
22068;SDS011;13887;57.196;-2.100;2024-03-08T09:51:52;12.87;;;12.47;;
22068;SDS011;13887;57.196;-2.100;2024-03-08T09:54:20;12.90;;;12.50;;
22068;SDS011;13887;57.196;-2.100;2024-03-08T09:56:51;12.47;;;12.07;;
22068;SDS011;13887;57.196;-2.100;2024-03-08T09:59:18;13.00;;;12.60;;
22068;SDS011;13887;57.196;-2.100;2024-03-08T10:01:55;12.63;;;12.23;;
22068;SDS011;13887;57.196;-2.100;2024-03-08T10:04:26;11.90;;;11.50;;
22068;SDS011;13887;57.196;-2.100;2024-03-08T10:06:55;12.40;;;12.00;;
22068;SDS011;13887;57.196;-2.100;2024-03-08T10:09:23;12.87;;;12.47;;
22068;SDS011;13887;57.196;-2.100;2024-03-08T10:11:56;12.67;;;12.27;;
22068;SDS011;13887;57.196;-2.100;2024-03-08T10:14:27;13.23;;;12.77;;
22068;SDS011;13887;57.196;-2.100;2024-03-08T10:16:55;13.37;;;12.87;;
22068;SDS011;13887;57.196;-2.100;2024-03-08T10:19:27;13.23;;;12.77;;
22068;SDS011;13887;57.196;-2.100;2024-03-08T10:21:57;13.47;;;12.97;;
22068;SDS011;13887;57.196;-2.100;2024-03-08T10:24:25;13.43;;;12.93;;
22068;SDS011;13887;57.196;-2.100;2024-03-08T10:26:53;12.90;;;12.50;;
22068;SDS011;13887;57.196;-2.100;2024-03-08T10:29:25;15.67;;;15.03;;
22068;SDS011;13887;57.196;-2.100;2024-03-08T10:31:52;13.30;;;12.80;;
22068;SDS011;13887;57.196;-2.100;2024-03-08T10:34:19;13.13;;;12.70;;
22068;SDS011;13887;57.196;-2.100;2024-03-08T10:36:47;12.93;;;12.53;;
22068;SDS011;13887;57.196;-2.100;2024-03-08T10:39:24;12.97;;;12.57;;
22068;SDS011;13887;57.196;-2.100;2024-03-08T10:41:58;13.10;;;12.70;;
22068;SDS011;13887;57.196;-2.100;2024-03-08T10:44:32;12.83;;;12.43;;
22068;SDS011;13887;57.196;-2.100;2024-03-08T10:47:30;12.87;;;12.47;;
22068;SDS011;13887;57.196;-2.100;2024-03-08T10:52:31;12.63;;;12.23;;
22068;SDS011;13887;57.196;-2.100;2024-03-08T10:54:58;12.37;;;11.97;;
22068;SDS011;13887;57.196;-2.100;2024-03-08T10:57:26;12.30;;;11.90;;
22068;SDS011;13887;57.196;-2.100;2024-03-08T10:59:54;12.70;;;12.30;;
22068;SDS011;13887;57.196;-2.100;2024-03-08T11:02:25;12.60;;;12.20;;
22068;SDS011;13887;57.196;-2.100;2024-03-08T11:04:54;12.90;;;12.50;;
22068;SDS011;13887;57.196;-2.100;2024-03-08T11:07:24;12.77;;;12.37;;
22068;SDS011;13887;57.196;-2.100;2024-03-08T11:09:54;12.70;;;12.30;;
22068;SDS011;13887;57.196;-2.100;2024-03-08T11:12:26;12.77;;;12.37;;
22068;SDS011;13887;57.196;-2.100;2024-03-08T11:14:59;13.10;;;12.70;;
22068;SDS011;13887;57.196;-2.100;2024-03-08T11:19:58;12.23;;;11.83;;
22068;SDS011;13887;57.196;-2.100;2024-03-08T11:22:29;13.20;;;12.80;;
22068;SDS011;13887;57.196;-2.100;2024-03-08T11:25:01;13.00;;;12.60;;
22068;SDS011;13887;57.196;-2.100;2024-03-08T11:27:30;12.60;;;12.20;;
22068;SDS011;13887;57.196;-2.100;2024-03-08T11:30:02;13.13;;;12.73;;
22068;SDS011;13887;57.196;-2.100;2024-03-08T11:32:57;12.73;;;12.33;;
22068;SDS011;13887;57.196;-2.100;2024-03-08T11:35:30;12.50;;;12.10;;
22068;SDS011;13887;57.196;-2.100;2024-03-08T11:38:00;13.00;;;12.60;;
22068;SDS011;13887;57.196;-2.100;2024-03-08T11:40:28;12.57;;;12.17;;
22068;SDS011;13887;57.196;-2.100;2024-03-08T11:42:56;12.60;;;12.20;;
22068;SDS011;13887;57.196;-2.100;2024-03-08T11:45:23;12.90;;;12.50;;
22068;SDS011;13887;57.196;-2.100;2024-03-08T11:47:50;12.43;;;12.03;;
22068;SDS011;13887;57.196;-2.100;2024-03-08T11:50:21;12.47;;;12.07;;
22068;SDS011;13887;57.196;-2.100;2024-03-08T11:52:50;12.10;;;11.70;;
22068;SDS011;13887;57.196;-2.100;2024-03-08T11:55:17;12.47;;;12.07;;
22068;SDS011;13887;57.196;-2.100;2024-03-08T11:57:47;14.17;;;13.67;;
22068;SDS011;13887;57.196;-2.100;2024-03-08T12:00:15;12.03;;;11.63;;
22068;SDS011;13887;57.196;-2.100;2024-03-08T12:03:02;11.93;;;11.53;;
22068;SDS011;13887;57.196;-2.100;2024-03-08T12:05:30;12.33;;;11.93;;
22068;SDS011;13887;57.196;-2.100;2024-03-08T12:08:00;12.27;;;11.87;;
22068;SDS011;13887;57.196;-2.100;2024-03-08T12:10:28;12.60;;;12.20;;
22068;SDS011;13887;57.196;-2.100;2024-03-08T12:12:59;12.67;;;12.27;;
22068;SDS011;13887;57.196;-2.100;2024-03-08T12:15:27;12.70;;;12.30;;
22068;SDS011;13887;57.196;-2.100;2024-03-08T12:17:55;12.40;;;12.00;;
22068;SDS011;13887;57.196;-2.100;2024-03-08T12:20:24;12.77;;;12.37;;
22068;SDS011;13887;57.196;-2.100;2024-03-08T12:22:53;12.60;;;12.20;;
22068;SDS011;13887;57.196;-2.100;2024-03-08T12:25:27;12.60;;;12.20;;
22068;SDS011;13887;57.196;-2.100;2024-03-08T12:28:09;12.80;;;12.40;;
22068;SDS011;13887;57.196;-2.100;2024-03-08T12:30:44;12.60;;;12.20;;
22068;SDS011;13887;57.196;-2.100;2024-03-08T12:33:19;12.53;;;12.13;;
22068;SDS011;13887;57.196;-2.100;2024-03-08T12:35:50;12.50;;;12.10;;
22068;SDS011;13887;57.196;-2.100;2024-03-08T12:38:22;12.70;;;12.30;;
22068;SDS011;13887;57.196;-2.100;2024-03-08T12:40:58;12.50;;;12.10;;
22068;SDS011;13887;57.196;-2.100;2024-03-08T12:43:26;12.70;;;12.30;;
22068;SDS011;13887;57.196;-2.100;2024-03-08T12:45:58;12.10;;;11.70;;
22068;SDS011;13887;57.196;-2.100;2024-03-08T12:48:25;12.17;;;11.77;;
22068;SDS011;13887;57.196;-2.100;2024-03-08T12:50:53;12.13;;;11.73;;
22068;SDS011;13887;57.196;-2.100;2024-03-08T12:53:20;11.93;;;11.53;;
22068;SDS011;13887;57.196;-2.100;2024-03-08T12:55:50;12.20;;;11.80;;
22068;SDS011;13887;57.196;-2.100;2024-03-08T12:58:17;12.07;;;11.67;;
22068;SDS011;13887;57.196;-2.100;2024-03-08T13:00:47;11.77;;;11.37;;
22068;SDS011;13887;57.196;-2.100;2024-03-08T13:03:19;12.07;;;11.67;;
22068;SDS011;13887;57.196;-2.100;2024-03-08T13:05:47;12.00;;;11.60;;
22068;SDS011;13887;57.196;-2.100;2024-03-08T13:08:16;11.93;;;11.53;;
22068;SDS011;13887;57.196;-2.100;2024-03-08T13:10:44;12.00;;;11.60;;
22068;SDS011;13887;57.196;-2.100;2024-03-08T13:13:12;12.30;;;11.90;;
22068;SDS011;13887;57.196;-2.100;2024-03-08T13:15:44;12.20;;;11.80;;
22068;SDS011;13887;57.196;-2.100;2024-03-08T13:18:12;12.67;;;12.27;;
22068;SDS011;13887;57.196;-2.100;2024-03-08T13:20:39;12.47;;;12.07;;
22068;SDS011;13887;57.196;-2.100;2024-03-08T13:23:13;13.07;;;12.67;;
22068;SDS011;13887;57.196;-2.100;2024-03-08T13:25:41;13.10;;;12.70;;
22068;SDS011;13887;57.196;-2.100;2024-03-08T13:28:09;12.70;;;12.30;;
22068;SDS011;13887;57.196;-2.100;2024-03-08T13:30:37;13.10;;;12.70;;
22068;SDS011;13887;57.196;-2.100;2024-03-08T13:33:05;12.63;;;12.23;;
22068;SDS011;13887;57.196;-2.100;2024-03-08T13:35:34;13.63;;;13.13;;
22068;SDS011;13887;57.196;-2.100;2024-03-08T13:38:02;12.90;;;12.50;;
22068;SDS011;13887;57.196;-2.100;2024-03-08T13:40:34;12.70;;;12.30;;
22068;SDS011;13887;57.196;-2.100;2024-03-08T13:43:02;12.90;;;12.50;;
22068;SDS011;13887;57.196;-2.100;2024-03-08T13:45:30;12.80;;;12.40;;
22068;SDS011;13887;57.196;-2.100;2024-03-08T13:47:58;13.00;;;12.60;;
22068;SDS011;13887;57.196;-2.100;2024-03-08T13:50:25;12.97;;;12.57;;
22068;SDS011;13887;57.196;-2.100;2024-03-08T13:52:53;13.70;;;13.07;;
22068;SDS011;13887;57.196;-2.100;2024-03-08T13:55:22;13.07;;;12.67;;
22068;SDS011;13887;57.196;-2.100;2024-03-08T13:57:52;13.20;;;12.80;;
22068;SDS011;13887;57.196;-2.100;2024-03-08T14:00:20;13.10;;;12.70;;
22068;SDS011;13887;57.196;-2.100;2024-03-08T14:02:54;12.87;;;12.47;;
22068;SDS011;13887;57.196;-2.100;2024-03-08T14:05:21;13.10;;;12.70;;
22068;SDS011;13887;57.196;-2.100;2024-03-08T14:07:48;12.93;;;12.53;;
22068;SDS011;13887;57.196;-2.100;2024-03-08T14:10:17;12.60;;;12.20;;
22068;SDS011;13887;57.196;-2.100;2024-03-08T14:12:49;13.60;;;13.10;;
22068;SDS011;13887;57.196;-2.100;2024-03-08T14:15:17;13.00;;;12.60;;
22068;SDS011;13887;57.196;-2.100;2024-03-08T14:17:45;12.80;;;12.40;;
22068;SDS011;13887;57.196;-2.100;2024-03-08T14:20:18;13.30;;;12.87;;
22068;SDS011;13887;57.196;-2.100;2024-03-08T14:22:46;13.00;;;12.60;;